map of RJOP home
RJOP - Heliport
Location
City:  Komatsujima, Shikoku Island, Tokushima, Japan
Name:Komatsujima Heliport
ICAO:RJOP

Details
Type:Heliport
Use:Military
Latitude:3400'19"N (34.005278)
Longitude:13437'35"E (134.626389)
Elevation:85 ft (26 m)
Variation:7.56W (WMM2015 magnetic declination)
-0.07 annual change
Helipads:1
Largest:820 × 148 ft (250 × 45 m), paved

Time
Time Zone:UTC+9
Local Time:

Weather
METAR:RJOP 212249Z 30010KT 9999 -SHRA FEW015 BKN035 BKN050 09/00 Q1016 RMK 1CU015 5CU035 7SC050 A3001

Related Locations
Nearby:
Farthest:SSMT: 12060 mi / 19409 km
Mostardas, RS, BR

Find:

   beyond  
but within

Other Information
Maps:
NOTAMs:
Links:
Sources:

  
  • flag of Japan
  • flag of Tokushima
  

Sectional Chart

Flight Planning
at skyvector.com

Satellite Image

Google Maps Satellite view

 

Copyright © 2004-2019 Karl L. Swartz. All rights reserved.
The Great Circle Mapper name and logo are trademarks of the Great Circle Mapper.
All other trademarks mentioned herein belong to their respective owners.
Please see credits for attibutions and further copyright information.

  Follow gcmap on Facebook Follow gcmap on Twitter Follow gcmap on Google+ GCmap on LinkedIn

hCard Microformat

Geo Microformat